Time;durP1;ratioP1;P1;durP2;ratioP2;P2;SDS_P1;SDS_P2;PMS_P1;PMS_P2;Temp;Humidity;BMP_temperature;BMP_pressure;BME280_temperature;BME280_humidity;BME280_pressure;Samples;Min_cycle;Max_cycle;Signal;HPM_P1;HPM_P2
2023/03/19 00:00:44;;;;;;;13.07;11.73;;;;;;;-146.25;100.00;52266.81;2096688;28;31993;-73
2023/03/19 00:01:46;;;;;;;12.55;11.25;;;;;;;-146.25;100.00;52281.00;2096247;28;31690;-73
2023/03/19 00:02:50;;;;;;;13.23;11.15;;;;;;;-146.25;100.00;52254.66;2096103;28;35305;-72
2023/03/19 00:03:52;;;;;;;12.60;11.30;;;;;;;-146.25;100.00;52268.84;2087441;28;34279;-73
2023/03/19 00:04:54;;;;;;;11.95;10.75;;;;;;;-146.25;100.00;52274.94;2088678;28;20926;-73
2023/03/19 00:05:55;;;;;;;11.25;10.05;;;;;;;-146.25;100.00;52295.19;2096340;28;35803;-73
2023/03/19 00:06:57;;;;;;;11.50;10.32;;;;;;;-146.25;100.00;52287.09;2096409;28;34145;-72
2023/03/19 00:07:59;;;;;;;12.82;9.82;;;;;;;-146.25;100.00;52260.72;2096008;28;30717;-73
2023/03/19 00:09:01;;;;;;;11.25;10.15;;;;;;;-146.25;100.00;52339.81;2096064;28;34241;-73
2023/03/19 00:10:05;;;;;;;11.68;10.20;;;;;;;-146.25;100.00;52268.84;2096402;28;31158;-73
2023/03/19 00:11:09;;;;;;;10.13;9.02;;;;;;;-146.25;100.00;52262.75;2096151;28;34917;-73
2023/03/19 00:12:11;;;;;;;11.93;9.32;;;;;;;-146.25;100.00;52244.50;2087403;28;29507;-73
2023/03/19 00:13:13;;;;;;;10.95;9.23;;;;;;;-146.25;100.00;52274.94;2087616;28;34836;-73
2023/03/19 00:14:15;;;;;;;9.93;8.90;;;;;;;-146.25;100.00;52283.03;2095963;28;37857;-73
2023/03/19 00:15:17;;;;;;;9.85;8.95;;;;;;;-146.25;100.00;52287.09;2096802;28;20041;-73
2023/03/19 00:16:20;;;;;;;10.43;9.32;;;;;;;-146.25;100.00;52224.25;2087133;28;36259;-73
2023/03/19 00:17:21;;;;;;;11.27;9.40;;;;;;;-146.25;100.00;52315.47;2087308;28;32923;-73
2023/03/19 00:18:24;;;;;;;9.60;8.45;;;;;;;-146.25;100.00;52274.94;2088003;28;20041;-73
2023/03/19 00:19:28;;;;;;;9.23;8.32;;;;;;;-146.25;100.00;52258.72;2087408;28;35827;-73
2023/03/19 00:20:30;;;;;;;9.35;8.38;;;;;;;-146.25;100.00;52291.16;2096087;28;34404;-73
2023/03/19 00:21:34;;;;;;;9.68;8.68;;;;;;;-146.25;100.00;52274.94;2096276;28;31219;-73
2023/03/19 00:22:35;;;;;;;9.50;8.60;;;;;;;-146.25;100.00;52327.66;2095774;28;38380;-73
2023/03/19 00:23:37;;;;;;;9.30;8.40;;;;;;;-146.25;100.00;52293.19;2087288;28;32398;-73
2023/03/19 00:24:39;;;;;;;11.05;8.10;;;;;;;-146.25;100.00;52289.13;2087064;28;35055;-73
2023/03/19 00:25:41;;;;;;;8.68;7.82;;;;;;;-146.25;100.00;52246.53;2095795;28;35614;-73
2023/03/19 00:26:43;;;;;;;9.00;7.90;;;;;;;-146.25;100.00;52264.78;2096595;28;20041;-73
2023/03/19 00:27:45;;;;;;;8.60;7.80;;;;;;;-146.25;100.00;52287.09;2087833;28;20045;-73
2023/03/19 00:28:47;;;;;;;8.48;7.68;;;;;;;-146.25;100.00;52276.97;2087894;28;20041;-73
2023/03/19 00:29:48;;;;;;;9.55;8.55;;;;;;;-146.25;100.00;52270.88;2096468;28;20041;-73
2023/03/19 00:30:50;;;;;;;11.60;8.88;;;;;;;-146.25;100.00;52274.94;2096707;28;20036;-73
2023/03/19 00:31:52;;;;;;;9.32;8.27;;;;;;;-146.25;100.00;52272.91;2095887;28;28090;-73
2023/03/19 00:32:54;;;;;;;8.60;7.80;;;;;;;-146.25;100.00;52303.31;2087104;28;31030;-73
2023/03/19 00:33:58;;;;;;;8.95;8.02;;;;;;;-146.25;100.00;52283.03;2087157;28;35030;-72
2023/03/19 00:35:00;;;;;;;8.45;7.65;;;;;;;-146.25;100.00;52287.09;2095964;28;20696;-73
2023/03/19 00:36:04;;;;;;;8.77;7.13;;;;;;;-146.25;100.00;52285.06;2087865;28;20034;-73
2023/03/19 00:37:06;;;;;;;8.57;7.68;;;;;;;-146.25;100.00;52287.09;2087657;28;21115;-73
2023/03/19 00:38:10;;;;;;;7.90;7.13;;;;;;;-146.25;100.00;52325.63;2088418;28;20126;-73
2023/03/19 00:39:12;;;;;;;7.80;7.00;;;;;;;-146.25;100.00;52297.22;2096061;28;33740;-72
2023/03/19 00:40:14;;;;;;;8.23;7.43;;;;;;;-146.25;100.00;52305.34;2096316;28;32510;-73
2023/03/19 00:41:17;;;;;;;8.82;7.93;;;;;;;-146.25;100.00;52287.09;2087341;28;20860;-73
2023/03/19 00:42:19;;;;;;;8.07;7.28;;;;;;;-146.25;100.00;52274.94;2087844;28;21437;-73
2023/03/19 00:43:21;;;;;;;7.93;7.13;;;;;;;-146.25;100.00;52293.19;2087726;28;20053;-72
2023/03/19 00:44:23;;;;;;;7.57;6.88;;;;;;;-146.25;100.00;52291.16;2087458;28;31334;-72
2023/03/19 00:45:25;;;;;;;8.02;6.40;;;;;;;-146.25;100.00;52327.66;2087484;28;20045;-72
2023/03/19 00:46:29;;;;;;;9.50;7.35;;;;;;;-146.25;100.00;52281.00;2087875;28;20150;-73
2023/03/19 00:47:33;;;;;;;7.13;6.45;;;;;;;-146.25;100.00;52291.16;2078887;28;32148;-74
2023/03/19 00:48:37;;;;;;;8.38;6.40;;;;;;;-146.25;100.00;52311.44;2087778;28;24720;-74
2023/03/19 00:49:39;;;;;;;7.80;7.00;;;;;;;-146.25;100.00;52262.75;2086742;28;35461;-74
2023/03/19 00:50:41;;;;;;;8.32;7.47;;;;;;;-146.25;100.00;52305.34;2079364;28;20046;-72
2023/03/19 00:51:43;;;;;;;7.40;6.68;;;;;;;-146.25;100.00;52291.16;2087333;28;26765;-72
2023/03/19 00:52:45;;;;;;;8.80;7.25;;;;;;;-146.25;100.00;52319.53;2095535;28;21099;-72
2023/03/19 00:53:47;;;;;;;7.18;6.47;;;;;;;-146.25;100.00;52289.13;2096962;28;32942;-74
2023/03/19 00:54:48;;;;;;;8.70;7.88;;;;;;;-146.25;100.00;52276.97;2097113;28;20037;-72
2023/03/19 00:55:50;;;;;;;7.53;6.80;;;;;;;-146.25;100.00;52266.81;2088531;28;34231;-73
2023/03/19 00:56:52;;;;;;;8.27;7.45;;;;;;;-146.25;100.00;52317.50;2088657;28;27606;-73
2023/03/19 00:57:54;;;;;;;8.32;7.38;;;;;;;-146.25;100.00;52260.72;2097673;28;25427;-73
2023/03/19 00:58:56;;;;;;;8.20;7.40;;;;;;;-146.25;100.00;52317.50;2098090;28;20126;-73
2023/03/19 01:00:00;;;;;;;9.52;8.30;;;;;;;-146.25;100.00;52289.13;2088941;28;20852;-73
2023/03/19 01:01:02;;;;;;;10.02;8.38;;;;;;;-146.25;100.00;52281.00;2088724;28;31854;-73
2023/03/19 01:02:05;;;;;;;9.23;8.32;;;;;;;-146.25;100.00;52309.41;2088818;28;20968;-73
2023/03/19 01:03:09;;;;;;;9.30;8.38;;;;;;;-146.25;100.00;52283.03;2080096;28;30114;-73
2023/03/19 01:04:14;;;;;;;9.30;8.32;;;;;;;-146.25;100.00;52264.78;2082073;28;20088;-73
2023/03/19 01:05:16;;;;;;;9.65;8.65;;;;;;;-146.25;100.00;52283.03;2088807;28;20050;-73
2023/03/19 01:06:17;;;;;;;9.35;8.00;;;;;;;-146.25;100.00;52256.69;2088985;28;29395;-73
2023/03/19 01:07:21;;;;;;;9.73;8.82;;;;;;;-146.25;100.00;52297.22;2089112;28;20780;-73
2023/03/19 01:08:26;;;;;;;9.73;8.75;;;;;;;-146.25;100.00;52315.47;2089017;28;25624;-73
2023/03/19 01:09:27;;;;;;;9.60;8.60;;;;;;;-146.25;100.00;52268.84;2097895;28;20037;-73
2023/03/19 01:10:33;;;;;;;9.13;8.32;;;;;;;-146.25;100.00;52266.81;2097720;28;20045;-73
2023/03/19 01:11:36;;;;;;;7.90;7.20;;;;;;;-146.25;100.00;52285.06;2088820;28;20976;-72
2023/03/19 01:12:38;;;;;;;8.23;7.43;;;;;;;-146.25;100.00;52274.94;2088988;28;20180;-73
2023/03/19 01:13:41;;;;;;;9.02;8.00;;;;;;;-146.25;100.00;52246.53;2097232;28;20107;-73
2023/03/19 01:14:42;;;;;;;9.18;8.27;;;;;;;-146.25;100.00;52276.97;2098216;28;20041;-73
2023/03/19 01:15:46;;;;;;;8.77;7.97;;;;;;;-146.25;100.00;52281.00;2088539;28;20036;-72
2023/03/19 01:16:47;;;;;;;8.20;7.40;;;;;;;-146.25;100.00;52250.59;2088924;28;22927;-72
2023/03/19 01:17:49;;;;;;;8.82;7.93;;;;;;;-146.25;100.00;52270.88;2096947;28;20029;-72
2023/03/19 01:18:52;;;;;;;8.95;8.13;;;;;;;-146.25;100.00;52264.78;2097229;28;20160;-72
2023/03/19 01:19:54;;;;;;;9.15;8.13;;;;;;;-146.25;100.00;52305.34;2096814;28;20037;-73
2023/03/19 01:20:56;;;;;;;8.70;7.90;;;;;;;-146.25;100.00;52327.66;2096939;28;24992;-73
2023/03/19 01:21:57;;;;;;;9.38;7.28;;;;;;;-146.25;100.00;52291.16;2088749;28;20033;-72
2023/03/19 01:23:00;;;;;;;7.97;7.25;;;;;;;-146.25;100.00;52270.88;2088472;28;20253;-73
2023/03/19 01:24:04;;;;;;;8.50;7.35;;;;;;;-146.25;100.00;52295.19;2089180;28;20904;-73
2023/03/19 01:25:08;;;;;;;8.73;7.80;;;;;;;-146.25;100.00;52274.94;2088883;28;20049;-73
2023/03/19 01:26:15;;;;;;;7.97;7.18;;;;;;;-146.25;100.00;52268.84;2081448;28;20046;-73
2023/03/19 01:27:21;;;;;;;9.15;8.00;;;;;;;-146.25;100.00;52272.91;2089165;28;20045;-73
2023/03/19 01:28:24;;;;;;;7.97;7.18;;;;;;;-146.25;100.00;52311.44;2080561;28;20279;-73
2023/03/19 01:29:26;;;;;;;8.30;7.60;;;;;;;-146.25;100.00;52274.94;2081913;28;20085;-73
2023/03/19 01:30:30;;;;;;;8.23;7.40;;;;;;;-146.25;100.00;52311.44;2095866;28;21087;-73
2023/03/19 01:31:38;;;;;;;9.05;7.93;;;;;;;-146.25;100.00;52287.09;2103131;28;20083;-72
2023/03/19 01:32:55;;;;;;;8.02;7.18;;;;;;;-146.25;100.00;52293.19;2096105;28;20044;-72
2023/03/19 01:34:21;;;;;;;7.50;6.90;;;;;;;-146.25;100.00;52283.03;2093276;28;20123;-72
2023/03/19 01:35:28;;;;;;;8.07;7.22;;;;;;;-146.25;100.00;52305.34;2088909;28;20946;-73
2023/03/19 01:36:30;;;;;;;8.40;7.55;;;;;;;-146.25;100.00;52268.84;2079677;28;20117;-72
2023/03/19 01:37:37;;;;;;;8.40;7.60;;;;;;;-146.25;100.00;52274.94;2081144;28;20050;-73
2023/03/19 01:38:38;;;;;;;8.05;7.22;;;;;;;-146.25;100.00;52303.31;2071790;28;20055;-72
2023/03/19 01:39:46;;;;;;;8.55;7.25;;;;;;;-146.25;100.00;52285.06;2073827;28;20896;-72
2023/03/19 01:40:48;;;;;;;7.88;7.18;;;;;;;-146.25;100.00;52283.03;2080033;28;20116;-71
2023/03/19 01:41:51;;;;;;;9.60;7.72;;;;;;;-146.25;100.00;52325.63;2088320;28;20834;-73
2023/03/19 01:43:25;;;;;;;7.85;7.13;;;;;;;-146.25;100.00;52258.72;2077359;28;20054;-72
2023/03/19 01:44:53;;;;;;;8.02;7.32;;;;;;;-146.25;100.00;52307.38;2094919;28;20080;-73
2023/03/19 01:46:15;;;;;;;8.00;7.30;;;;;;;-146.25;100.00;52260.72;2096417;28;20037;-72
2023/03/19 01:47:55;;;;;;;8.02;7.22;;;;;;;-146.25;100.00;52276.97;2087172;28;20923;-74
2023/03/19 01:49:18;;;;;;;7.35;6.68;;;;;;;-146.25;100.00;52283.03;2088191;28;20084;-73
2023/03/19 01:50:42;;;;;;;7.57;6.88;;;;;;;-146.25;100.00;52276.97;2083534;28;20089;-72
2023/03/19 01:52:02;;;;;;;8.07;7.28;;;;;;;-146.25;100.00;52319.53;2091988;28;20033;-72
2023/03/19 01:53:14;;;;;;;8.05;7.38;;;;;;;-146.25;100.00;52323.59;2085991;28;20046;-72
2023/03/19 01:54:25;;;;;;;7.55;6.78;;;;;;;-146.25;100.00;52335.75;2082820;28;20036;-72
2023/03/19 01:56:01;;;;;;;8.05;7.20;;;;;;;-146.25;100.00;52311.44;2084233;28;20141;-73
2023/03/19 01:57:15;;;;;;;8.75;7.20;;;;;;;-146.25;100.00;52295.19;2090223;28;20111;-72
2023/03/19 01:58:42;;;;;;;8.50;7.63;;;;;;;-146.25;100.00;52252.63;2092092;28;20055;-73
2023/03/19 02:00:06;;;;;;;8.40;7.15;;;;;;;-146.25;100.00;52266.81;2088076;28;20164;-73
2023/03/19 02:01:17;;;;;;;8.80;7.85;;;;;;;-146.25;100.00;52301.28;2089679;28;20112;-72
2023/03/19 02:02:32;;;;;;;8.35;7.55;;;;;;;-146.25;100.00;52295.19;2087993;28;20041;-73
2023/03/19 02:03:44;;;;;;;7.82;7.07;;;;;;;-146.25;100.00;52272.91;2090823;28;20841;-72
2023/03/19 02:05:10;;;;;;;8.45;7.65;;;;;;;-146.25;100.00;52315.47;2087424;28;20061;-73
2023/03/19 02:06:13;;;;;;;8.90;8.10;;;;;;;-146.25;100.00;52315.47;2091813;28;20037;-73
2023/03/19 02:07:16;;;;;;;10.13;8.00;;;;;;;-146.25;100.00;52248.56;2087800;28;20046;-73
2023/03/19 02:08:21;;;;;;;9.05;8.20;;;;;;;-146.25;100.00;52291.16;2079610;28;20034;-73
2023/03/19 02:09:26;;;;;;;9.50;7.70;;;;;;;-146.25;100.00;52283.03;2088292;28;20165;-72
2023/03/19 02:10:29;;;;;;;8.77;7.88;;;;;;;-146.25;100.00;52283.03;2088052;28;21071;-73
2023/03/19 02:11:32;;;;;;;8.30;7.60;;;;;;;-146.25;100.00;52311.44;2088239;28;20821;-72
2023/03/19 02:12:34;;;;;;;8.70;7.90;;;;;;;-146.25;100.00;52289.13;2096499;28;20096;-73
2023/03/19 02:13:36;;;;;;;9.10;7.95;;;;;;;-146.25;100.00;52291.16;2095822;28;20134;-73
2023/03/19 02:14:38;;;;;;;8.63;7.60;;;;;;;-146.25;100.00;52258.72;2071694;28;20136;-73
2023/03/19 02:15:40;;;;;;;8.90;8.00;;;;;;;-146.25;100.00;52278.97;2079463;28;34319;-72
2023/03/19 02:16:43;;;;;;;8.00;7.30;;;;;;;-146.25;100.00;52287.09;2087963;28;21241;-73
2023/03/19 02:17:45;;;;;;;11.10;8.70;;;;;;;-146.25;100.00;52309.41;2079537;28;20829;-73
2023/03/19 02:18:47;;;;;;;9.02;8.15;;;;;;;-146.25;100.00;52258.72;2088284;28;20964;-73
2023/03/19 02:20:24;;;;;;;8.98;8.07;;;;;;;-146.25;100.00;52285.06;2096807;28;22622;-73
2023/03/19 02:21:26;;;;;;;9.75;8.85;;;;;;;-146.25;100.00;52297.22;2083551;28;20235;-73
2023/03/19 02:22:30;;;;;;;8.73;7.93;;;;;;;-146.25;100.00;52309.41;2087979;28;20041;-73
2023/03/19 02:23:58;;;;;;;9.15;8.25;;;;;;;-146.25;100.00;52274.94;2087920;28;20352;-73
2023/03/19 02:25:46;;;;;;;9.68;8.73;;;;;;;-146.25;100.00;52303.31;2077604;28;20179;-73
2023/03/19 02:26:49;;;;;;;8.70;7.80;;;;;;;-146.25;100.00;52272.91;2083652;28;20033;-72
2023/03/19 02:27:52;;;;;;;9.40;8.50;;;;;;;-146.25;100.00;52287.09;2089635;28;20050;-73
2023/03/19 02:28:54;;;;;;;8.95;7.70;;;;;;;-146.25;100.00;52283.03;2087685;28;20909;-73
2023/03/19 02:30:27;;;;;;;10.57;8.10;;;;;;;-146.25;100.00;52317.50;2050242;28;1092062;-73
2023/03/19 02:31:33;;;;;;;8.95;8.05;;;;;;;-146.25;100.00;52291.16;2087999;28;20041;-73
2023/03/19 02:32:38;;;;;;;9.65;8.40;;;;;;;-146.25;100.00;52274.94;2088072;28;20045;-73
2023/03/19 02:33:40;;;;;;;9.48;8.55;;;;;;;-146.25;100.00;52244.50;2095776;28;38361;-73
2023/03/19 02:34:43;;;;;;;10.57;8.60;;;;;;;-146.25;100.00;52299.25;2096498;28;20037;-73
2023/03/19 02:35:51;;;;;;;9.65;8.45;;;;;;;-146.25;100.00;52291.16;2096222;28;20936;-73
2023/03/19 02:37:27;;;;;;;10.23;9.23;;;;;;;-146.25;100.00;52343.88;2089185;28;20034;-73
2023/03/19 02:38:32;;;;;;;10.63;9.10;;;;;;;-146.25;100.00;52329.66;2087528;28;20135;-73
2023/03/19 02:40:07;;;;;;;9.23;8.32;;;;;;;-146.25;100.00;52305.34;2080382;28;20189;-72
2023/03/19 02:41:10;;;;;;;9.40;8.50;;;;;;;-146.25;100.00;52319.53;2093721;28;21104;-71
2023/03/19 02:42:16;;;;;;;9.90;8.88;;;;;;;-146.25;100.00;52268.84;2096479;28;20037;-74
2023/03/19 02:43:21;;;;;;;10.50;9.40;;;;;;;-146.25;100.00;52262.75;2095951;28;20122;-71
2023/03/19 02:44:25;;;;;;;9.90;8.90;;;;;;;-146.25;100.00;52303.31;2089089;28;21019;-73
2023/03/19 02:45:29;;;;;;;10.50;9.48;;;;;;;-146.25;100.00;52309.41;2087635;28;20042;-72
2023/03/19 02:46:31;;;;;;;9.88;8.98;;;;;;;-146.25;100.00;52305.34;2088508;28;33404;-74
2023/03/19 02:47:33;;;;;;;10.52;9.20;;;;;;;-146.25;100.00;52303.31;2096987;28;20262;-74
2023/03/19 02:48:36;;;;;;;10.50;9.50;;;;;;;-146.25;100.00;52293.19;2096988;28;26875;-72
2023/03/19 02:49:38;;;;;;;12.60;9.85;;;;;;;-146.25;100.00;52291.16;2096714;28;33808;-73
2023/03/19 02:50:39;;;;;;;9.95;9.05;;;;;;;-146.25;100.00;52345.91;2097229;28;24750;-72
2023/03/19 02:51:41;;;;;;;10.15;9.15;;;;;;;-146.25;100.00;52260.72;2087717;28;20107;-72
2023/03/19 02:52:43;;;;;;;10.57;9.35;;;;;;;-146.25;100.00;52281.00;2087709;28;27647;-73
2023/03/19 02:53:44;;;;;;;10.55;9.50;;;;;;;-146.25;100.00;52272.91;2096502;28;29589;-72
2023/03/19 02:54:47;;;;;;;10.15;9.10;;;;;;;-146.25;100.00;52295.19;2088461;28;20192;-72
2023/03/19 02:55:49;;;;;;;10.20;9.13;;;;;;;-146.25;100.00;52309.41;2088569;28;20041;-72
2023/03/19 02:56:51;;;;;;;10.00;9.10;;;;;;;-146.25;100.00;52252.63;2087923;28;31359;-72
2023/03/19 02:57:55;;;;;;;10.05;9.13;;;;;;;-146.25;100.00;52321.56;2088184;28;28845;-73
2023/03/19 02:58:57;;;;;;;11.45;9.73;;;;;;;-146.25;100.00;52266.81;2096736;28;24190;-72
2023/03/19 02:59:59;;;;;;;9.77;8.82;;;;;;;-146.25;100.00;52319.53;2096145;28;23346;-73
2023/03/19 03:01:00;;;;;;;10.32;9.32;;;;;;;-146.25;100.00;52303.31;2096392;28;20119;-73
2023/03/19 03:02:02;;;;;;;10.38;9.38;;;;;;;-146.25;100.00;52256.69;2079963;28;21031;-73
2023/03/19 03:03:06;;;;;;;11.07;9.70;;;;;;;-146.25;100.00;52281.00;2071640;28;20113;-73
2023/03/19 03:04:08;;;;;;;10.23;9.13;;;;;;;-146.25;100.00;52303.31;2071519;28;32356;-73
2023/03/19 03:05:10;;;;;;;10.40;9.40;;;;;;;-146.25;100.00;52299.25;2080537;28;21012;-73
2023/03/19 03:06:13;;;;;;;10.18;9.18;;;;;;;-146.25;100.00;52274.94;2079893;28;20046;-73
2023/03/19 03:07:16;;;;;;;10.70;9.60;;;;;;;-146.25;100.00;52287.09;2080509;28;20927;-72
2023/03/19 03:08:19;;;;;;;11.05;10.05;;;;;;;-146.25;100.00;52295.19;2088862;28;30225;-73
2023/03/19 03:09:24;;;;;;;11.82;10.63;;;;;;;-146.25;100.00;52345.91;2071057;28;20062;-73
2023/03/19 03:10:26;;;;;;;11.45;10.35;;;;;;;-146.25;100.00;52262.75;2072204;28;28796;-73
2023/03/19 03:11:28;;;;;;;11.18;10.07;;;;;;;-146.25;100.00;52327.66;2087711;28;25943;-72
2023/03/19 03:12:30;;;;;;;11.05;9.90;;;;;;;-146.25;100.00;52309.41;2087968;28;20042;-74
2023/03/19 03:13:32;;;;;;;10.38;9.25;;;;;;;-146.25;100.00;52218.16;2080023;28;20107;-74
2023/03/19 03:14:34;;;;;;;10.82;9.73;;;;;;;-146.25;100.00;52307.38;2080077;28;20182;-72
2023/03/19 03:15:36;;;;;;;10.65;9.55;;;;;;;-146.25;100.00;52333.72;2088280;28;21596;-73
2023/03/19 03:16:38;;;;;;;10.77;9.77;;;;;;;-146.25;100.00;52303.31;2088445;28;23105;-73
2023/03/19 03:17:43;;;;;;;11.43;10.23;;;;;;;-146.25;100.00;52335.75;2088254;28;20088;-73
2023/03/19 03:18:44;;;;;;;11.88;10.68;;;;;;;-146.25;100.00;52323.59;2088149;28;31495;-74
2023/03/19 03:19:46;;;;;;;11.40;10.25;;;;;;;-146.25;100.00;52278.97;2088553;28;20053;-73
2023/03/19 03:20:48;;;;;;;11.98;10.77;;;;;;;-146.25;100.00;52254.66;2079809;28;20172;-72
2023/03/19 03:21:50;;;;;;;12.73;11.40;;;;;;;-146.25;100.00;52299.25;2087927;28;20041;-73
2023/03/19 03:22:54;;;;;;;13.07;11.77;;;;;;;-146.25;100.00;52303.31;2088764;28;20045;-72
2023/03/19 03:23:56;;;;;;;13.00;10.82;;;;;;;-146.25;100.00;52287.09;2088016;28;26291;-73
2023/03/19 03:24:58;;;;;;;11.68;10.48;;;;;;;-146.25;100.00;52307.38;2071171;28;30904;-73
2023/03/19 03:26:05;;;;;;;11.60;10.18;;;;;;;-146.25;100.00;52329.66;2073191;28;20081;-73
2023/03/19 03:27:07;;;;;;;10.57;9.48;;;;;;;-146.25;100.00;52274.94;2088475;28;25900;-73
2023/03/19 03:28:09;;;;;;;10.60;9.52;;;;;;;-146.25;100.00;52256.69;2079864;28;20124;-73
2023/03/19 03:29:11;;;;;;;12.57;10.70;;;;;;;-146.25;100.00;52303.31;2087780;28;28121;-72
2023/03/19 03:30:15;;;;;;;11.38;10.18;;;;;;;-146.25;100.00;52337.78;2092717;28;32997;-73
2023/03/19 03:31:17;;;;;;;13.10;11.48;;;;;;;-146.25;100.00;52291.16;2096354;28;20037;-73
2023/03/19 03:32:19;;;;;;;11.75;10.43;;;;;;;-146.25;100.00;52309.41;2096640;28;23287;-73
2023/03/19 03:33:21;;;;;;;11.57;10.02;;;;;;;-146.25;100.00;52246.53;2096059;28;30447;-72
2023/03/19 03:34:23;;;;;;;12.20;10.85;;;;;;;-146.25;100.00;52313.44;2096438;28;29734;-73
2023/03/19 03:35:26;;;;;;;12.70;11.50;;;;;;;-146.25;100.00;52307.38;2096138;28;37628;-72
2023/03/19 03:36:27;;;;;;;11.57;10.40;;;;;;;-146.25;100.00;52301.28;2095913;28;26941;-72
2023/03/19 03:37:29;;;;;;;11.63;10.45;;;;;;;-146.25;100.00;52315.47;2096031;28;26080;-71
2023/03/19 03:38:32;;;;;;;11.93;10.60;;;;;;;-146.25;100.00;52307.38;2087437;28;26432;-72
2023/03/19 03:39:34;;;;;;;11.93;10.82;;;;;;;-146.25;100.00;52270.88;2088238;28;21156;-72
2023/03/19 03:40:36;;;;;;;12.38;11.07;;;;;;;-146.25;100.00;52272.91;2087974;28;20135;-72
2023/03/19 03:41:38;;;;;;;12.10;10.73;;;;;;;-146.25;100.00;52274.94;2088035;28;20050;-71
2023/03/19 03:42:40;;;;;;;13.70;12.30;;;;;;;-146.25;100.00;52309.41;2096117;28;20152;-72
2023/03/19 03:43:42;;;;;;;13.27;11.88;;;;;;;-146.25;100.00;52327.66;2096305;28;20043;-72
2023/03/19 03:44:44;;;;;;;14.48;12.75;;;;;;;-146.25;100.00;52313.44;2088062;28;21342;-72
2023/03/19 03:45:47;;;;;;;14.52;12.27;;;;;;;-146.25;100.00;52283.03;2088043;28;21395;-72
2023/03/19 03:46:50;;;;;;;14.20;11.77;;;;;;;-146.25;100.00;52311.44;2087705;28;20179;-72
2023/03/19 03:47:52;;;;;;;13.55;11.32;;;;;;;-146.25;100.00;52258.72;2087706;28;22411;-72
2023/03/19 03:48:54;;;;;;;12.27;11.07;;;;;;;-146.25;100.00;52327.66;2087744;28;20045;-72
2023/03/19 03:49:58;;;;;;;13.25;11.32;;;;;;;-146.25;100.00;52313.44;2087809;28;20037;-73
2023/03/19 03:51:02;;;;;;;15.18;13.55;;;;;;;-146.25;100.00;52311.44;2087630;28;20049;-73
2023/03/19 03:52:04;;;;;;;15.00;12.70;;;;;;;-146.25;100.00;52281.00;2088071;28;20045;-72
2023/03/19 03:53:08;;;;;;;13.55;12.15;;;;;;;-146.25;100.00;52315.47;2088213;28;20041;-73
2023/03/19 03:54:11;;;;;;;14.68;11.95;;;;;;;-146.25;100.00;52270.88;2088164;28;20088;-73
2023/03/19 03:55:13;;;;;;;12.85;11.65;;;;;;;-146.25;100.00;52283.03;2096071;28;20048;-73
2023/03/19 03:56:17;;;;;;;15.00;13.50;;;;;;;-146.25;100.00;52254.66;2095766;28;20830;-72
2023/03/19 03:57:21;;;;;;;14.60;13.05;;;;;;;-146.25;100.00;52303.31;2095647;28;20048;-73
2023/03/19 03:58:23;;;;;;;14.32;12.85;;;;;;;-146.25;100.00;52268.84;2096052;28;20041;-73
2023/03/19 03:59:25;;;;;;;15.75;13.75;;;;;;;-146.25;100.00;52303.31;2087436;28;26587;-73
2023/03/19 04:00:26;;;;;;;14.13;12.70;;;;;;;-146.25;100.00;52285.06;2079282;28;20929;-72
2023/03/19 04:01:28;;;;;;;15.80;13.45;;;;;;;-146.25;100.00;52315.47;2087512;28;33188;-73
2023/03/19 04:02:30;;;;;;;14.38;12.80;;;;;;;-146.25;100.00;52285.06;2079177;28;20182;-73
2023/03/19 04:03:33;;;;;;;16.80;14.80;;;;;;;-146.25;100.00;52274.94;2080099;28;20252;-73
2023/03/19 04:04:37;;;;;;;14.65;12.60;;;;;;;-146.25;100.00;52307.38;2095395;28;31755;-72
2023/03/19 04:05:39;;;;;;;15.70;14.00;;;;;;;-146.25;100.00;52272.91;2087465;28;20048;-73
2023/03/19 04:06:41;;;;;;;18.63;14.48;;;;;;;-146.25;100.00;52283.03;2071599;28;20094;-73
2023/03/19 04:08:02;;;;;;;15.20;13.52;;;;;;;-146.25;100.00;52307.38;2090163;28;20041;-73
2023/03/19 04:09:04;;;;;;;15.93;13.70;;;;;;;-146.25;100.00;52325.63;2087919;28;20038;-73
2023/03/19 04:10:09;;;;;;;14.60;12.93;;;;;;;-146.25;100.00;52287.09;2087769;28;20045;-73
2023/03/19 04:11:11;;;;;;;16.80;13.98;;;;;;;-146.25;100.00;52283.03;2096164;28;20049;-72
2023/03/19 04:12:14;;;;;;;16.13;14.50;;;;;;;-146.25;100.00;52297.22;2095913;28;25726;-73
2023/03/19 04:13:16;;;;;;;17.08;14.93;;;;;;;-146.25;100.00;52325.63;2079445;28;20154;-73
2023/03/19 04:14:21;;;;;;;16.50;14.80;;;;;;;-146.25;100.00;52266.81;2087727;28;21076;-73
2023/03/19 04:15:23;;;;;;;16.25;14.55;;;;;;;-146.25;100.00;52311.44;2088232;28;20037;-73
2023/03/19 04:16:28;;;;;;;18.20;13.77;;;;;;;-146.25;100.00;52315.47;2088012;28;20952;-73
2023/03/19 04:17:29;;;;;;;16.50;14.57;;;;;;;-146.25;100.00;52301.28;2095696;28;20048;-73
2023/03/19 04:18:31;;;;;;;15.05;13.45;;;;;;;-146.25;100.00;52270.88;2095205;28;33940;-73
2023/03/19 04:19:33;;;;;;;15.65;13.32;;;;;;;-146.25;100.00;52329.66;2096275;28;36176;-73
2023/03/19 04:20:36;;;;;;;15.40;13.02;;;;;;;-146.25;100.00;52291.16;2087710;28;20038;-73
2023/03/19 04:21:40;;;;;;;13.48;12.13;;;;;;;-146.25;100.00;52315.47;2079215;28;30053;-73
2023/03/19 04:22:42;;;;;;;15.10;13.30;;;;;;;-146.25;100.00;52327.66;2079723;28;20064;-73
2023/03/19 04:23:44;;;;;;;15.00;13.45;;;;;;;-146.25;100.00;52301.28;2087892;28;20120;-73
2023/03/19 04:24:45;;;;;;;15.75;14.05;;;;;;;-146.25;100.00;52313.44;2087524;28;30072;-73
2023/03/19 04:25:48;;;;;;;16.15;14.43;;;;;;;-146.25;100.00;52238.44;2087727;28;20897;-73
2023/03/19 04:26:52;;;;;;;15.90;14.02;;;;;;;-146.25;100.00;52315.47;2079657;28;20180;-73
2023/03/19 04:27:57;;;;;;;15.18;13.63;;;;;;;-146.25;100.00;52315.47;2088591;28;20079;-73
2023/03/19 04:29:00;;;;;;;14.82;13.35;;;;;;;-146.25;100.00;52276.97;2089872;28;20042;-73
2023/03/19 04:30:03;;;;;;;15.18;13.63;;;;;;;-146.25;100.00;52313.44;2088704;28;20041;-73
2023/03/19 04:31:08;;;;;;;15.35;13.85;;;;;;;-146.25;100.00;52299.25;2089525;28;20107;-73
2023/03/19 04:32:14;;;;;;;14.52;13.05;;;;;;;-146.25;100.00;52313.44;2081099;28;20050;-73
2023/03/19 04:33:16;;;;;;;15.23;13.63;;;;;;;-146.25;100.00;52307.38;2073140;28;20044;-73
2023/03/19 04:34:18;;;;;;;14.95;13.35;;;;;;;-146.25;100.00;52327.66;2080871;28;20055;-73
2023/03/19 04:35:22;;;;;;;16.15;14.15;;;;;;;-146.25;100.00;52295.19;2089725;28;20045;-73
2023/03/19 04:36:24;;;;;;;16.83;15.07;;;;;;;-146.25;100.00;52311.44;2089588;28;20061;-73
2023/03/19 04:37:26;;;;;;;13.85;12.45;;;;;;;-146.25;100.00;52305.34;2080754;28;20042;-73
2023/03/19 04:38:33;;;;;;;15.07;13.50;;;;;;;-146.25;100.00;52307.38;2089816;28;27093;-73
2023/03/19 04:39:35;;;;;;;15.60;13.95;;;;;;;-146.25;100.00;52291.16;2088657;28;30680;-73
2023/03/19 04:40:37;;;;;;;15.27;13.68;;;;;;;-146.25;100.00;52274.94;2089485;28;20100;-74
2023/03/19 04:41:39;;;;;;;14.38;12.98;;;;;;;-146.25;100.00;52339.81;2097106;28;20045;-73
2023/03/19 04:43:02;;;;;;;15.45;13.48;;;;;;;-146.25;100.00;52287.09;2088864;28;20048;-73
2023/03/19 04:44:06;;;;;;;15.07;12.73;;;;;;;-146.25;100.00;52364.13;2089535;28;20819;-73
2023/03/19 04:45:33;;;;;;;15.90;13.57;;;;;;;-146.25;100.00;52297.22;2080777;28;20132;-73
2023/03/19 04:46:40;;;;;;;17.08;13.90;;;;;;;-146.25;100.00;52319.53;2080584;28;20096;-72
2023/03/19 04:47:42;;;;;;;14.88;13.27;;;;;;;-146.25;100.00;52287.09;2084376;28;20191;-72
2023/03/19 04:48:44;;;;;;;15.77;14.18;;;;;;;-146.25;100.00;52270.88;2089256;28;20045;-73
2023/03/19 04:49:46;;;;;;;19.75;14.50;;;;;;;-146.25;100.00;52276.97;2080329;28;20985;-73
2023/03/19 04:50:51;;;;;;;15.95;14.15;;;;;;;-146.25;100.00;52297.22;2081263;28;20922;-72
2023/03/19 04:51:55;;;;;;;16.48;14.68;;;;;;;-146.25;100.00;52311.44;2097485;28;20684;-73
2023/03/19 04:52:57;;;;;;;16.23;14.02;;;;;;;-146.25;100.00;52301.28;2089196;28;20961;-73